Time;durP1;ratioP1;P1;durP2;ratioP2;P2;SDS_P1;SDS_P2;PMS_P1;PMS_P2;Temp;Humidity;BMP_temperature;BMP_pressure;BME280_temperature;BME280_humidity;BME280_pressure;Samples;Min_cycle;Max_cycle;Signal;HPM_P1;HPM_P2
2021/12/26 18:37:06;;;;;;;19.20;12.82;;;;;;;;;;5097187;27;20903;-74
2021/12/26 18:39:32;;;;;;;12.70;6.60;;;;;;;;;;5085294;28;20490;-74
2021/12/26 18:41:59;;;;;;;10.70;4.72;;;;;;;;;;5085358;28;20075;-73
2021/12/26 18:44:26;;;;;;;20.75;5.00;;;;;;;;;;5070886;28;20028;-73
2021/12/26 18:46:52;;;;;;;14.90;6.43;;;;;;;;;;5079085;28;20056;-74
2021/12/26 18:49:18;;;;;;;15.85;7.65;;;;;;;;;;5080430;28;20395;-73
2021/12/26 18:51:44;;;;;;;9.68;5.63;;;;;;;;;;5065339;28;20026;-73
2021/12/26 18:54:10;;;;;;;10.88;4.55;;;;;;;;;;5076777;28;20056;-75
2021/12/26 18:56:37;;;;;;;13.32;4.60;;;;;;;;;;5079607;28;20465;-78
2021/12/26 18:59:03;;;;;;;19.88;7.28;;;;;;;;;;5080062;28;20069;-79
2021/12/26 19:01:30;;;;;;;15.95;5.63;;;;;;;;;;5103667;28;20017;-78
2021/12/26 19:03:56;;;;;;;24.63;15.55;;;;;;;;;;5073524;28;20029;-78
2021/12/26 19:06:22;;;;;;;81.22;51.95;;;;;;;;;;5099819;28;20470;-76
2021/12/26 19:08:48;;;;;;;63.58;45.92;;;;;;;;;;5072809;28;20025;-73
2021/12/26 19:11:14;;;;;;;24.52;16.88;;;;;;;;;;5071735;28;20032;-72
2021/12/26 19:13:41;;;;;;;14.52;8.98;;;;;;;;;;5074115;28;20025;-72
2021/12/26 19:16:07;;;;;;;19.98;9.80;;;;;;;;;;5072010;28;20107;-73
2021/12/26 19:18:33;;;;;;;26.38;11.02;;;;;;;;;;5073031;28;20032;-73
2021/12/26 19:21:01;;;;;;;21.55;8.63;;;;;;;;;;5072860;28;20029;-75
2021/12/26 19:23:27;;;;;;;25.10;8.93;;;;;;;;;;5074327;28;20025;-76
2021/12/26 19:25:59;;;;;;;14.65;6.82;;;;;;;;;;5075229;28;20085;-76
2021/12/26 19:28:25;;;;;;;10.95;5.68;;;;;;;;;;5069067;28;21184;-73
2021/12/26 19:30:51;;;;;;;18.63;9.40;;;;;;;;;;5073034;28;20029;-73
2021/12/26 19:33:18;;;;;;;23.40;10.38;;;;;;;;;;5073345;28;20040;-73
2021/12/26 19:35:45;;;;;;;18.77;10.30;;;;;;;;;;5075461;28;20476;-76
2021/12/26 19:38:12;;;;;;;30.13;12.02;;;;;;;;;;5072730;28;20031;-79
2021/12/26 19:40:39;;;;;;;18.73;8.00;;;;;;;;;;5074338;28;20048;-73
2021/12/26 19:43:12;;;;;;;16.88;6.20;;;;;;;;;;5067323;28;20032;-73
2021/12/26 19:45:38;;;;;;;;;;;;;;;;;;5070973;28;20028;-77
2021/12/26 19:48:04;;;;;;;14.57;5.55;;;;;;;;;;5070027;28;19917;-77
2021/12/26 19:50:30;;;;;;;16.85;6.85;;;;;;;;;;5060903;28;20106;-77
2021/12/26 19:52:56;;;;;;;11.55;4.82;;;;;;;;;;5059342;28;20032;-78
2021/12/26 19:55:22;;;;;;;18.08;7.65;;;;;;;;;;5058211;28;20033;-78
2021/12/26 19:57:48;;;;;;;17.00;10.07;;;;;;;;;;5057533;28;20120;-73
2021/12/26 20:00:15;;;;;;;18.40;11.65;;;;;;;;;;5064365;28;20092;-72
2021/12/26 20:02:41;;;;;;;25.95;12.20;;;;;;;;;;5057008;28;20044;-72
2021/12/26 20:05:07;;;;;;;30.38;13.77;;;;;;;;;;5048329;28;20036;-72
2021/12/26 20:07:33;;;;;;;20.23;11.80;;;;;;;;;;5078200;28;20052;-74
2021/12/26 20:09:59;;;;;;;26.52;14.75;;;;;;;;;;5059584;28;20079;-73
2021/12/26 20:12:25;;;;;;;23.35;14.52;;;;;;;;;;5069829;28;20071;-72
2021/12/26 20:14:53;;;;;;;38.30;22.05;;;;;;;;;;5066277;28;20573;-72
2021/12/26 20:17:19;;;;;;;44.22;22.10;;;;;;;;;;5066031;28;20029;-73
2021/12/26 20:19:45;;;;;;;60.60;26.70;;;;;;;;;;5061825;28;20060;-73
2021/12/26 20:22:11;;;;;;;45.83;18.45;;;;;;;;;;5063620;28;20020;-77
2021/12/26 20:24:37;;;;;;;32.28;17.83;;;;;;;;;;5068369;28;20021;-77
2021/12/26 20:27:04;;;;;;;32.45;16.33;;;;;;;;;;5067093;28;20418;-72
2021/12/26 20:29:30;;;;;;;32.50;15.35;;;;;;;;;;5061855;28;20385;-77
2021/12/26 20:31:56;;;;;;;35.83;15.20;;;;;;;;;;5060845;28;20396;-77
2021/12/26 20:34:22;;;;;;;28.63;13.27;;;;;;;;;;5058399;28;20036;-77
2021/12/26 20:36:49;;;;;;;19.30;8.38;;;;;;;;;;5063340;28;20044;-77
2021/12/26 20:39:15;;;;;;;16.65;8.68;;;;;;;;;;5052612;28;20543;-77
2021/12/26 20:41:41;;;;;;;20.45;8.55;;;;;;;;;;5058525;28;20104;-72
2021/12/26 20:44:08;;;;;;;17.25;7.22;;;;;;;;;;5063313;28;20017;-73
2021/12/26 20:46:34;;;;;;;10.57;5.57;;;;;;;;;;5047544;28;20431;-73
2021/12/26 20:49:04;;;;;;;11.82;6.63;;;;;;;;;;5055006;28;20116;-74
2021/12/26 20:51:31;;;;;;;12.18;7.38;;;;;;;;;;5059406;28;20039;-78
2021/12/26 20:53:57;;;;;;;26.40;9.20;;;;;;;;;;5083386;28;20040;-72
2021/12/26 20:56:23;;;;;;;21.33;9.50;;;;;;;;;;5082680;28;20051;-73
2021/12/26 20:58:49;;;;;;;15.23;8.98;;;;;;;;;;5057742;28;20541;-74
2021/12/26 21:01:15;;;;;;;26.38;9.30;;;;;;;;;;5053395;28;20527;-73
2021/12/26 21:03:41;;;;;;;25.20;9.00;;;;;;;;;;5059559;28;20025;-77
2021/12/26 21:06:07;;;;;;;22.80;12.70;;;;;;;;;;5064438;28;20028;-76
2021/12/26 21:08:34;;;;;;;32.65;12.27;;;;;;;;;;5056097;28;20047;-76
2021/12/26 21:11:01;;;;;;;18.02;8.70;;;;;;;;;;5063053;28;20021;-76
2021/12/26 21:13:27;;;;;;;14.38;7.30;;;;;;;;;;5062953;28;20675;-73
2021/12/26 21:15:54;;;;;;;17.83;8.18;;;;;;;;;;5059447;28;20499;-78
2021/12/26 21:18:21;;;;;;;20.13;7.95;;;;;;;;;;5056875;28;20021;-74
2021/12/26 21:20:48;;;;;;;15.85;8.52;;;;;;;;;;5038454;28;20021;-73
2021/12/26 21:23:14;;;;;;;17.77;7.90;;;;;;;;;;5067764;28;20028;-78
2021/12/26 21:25:42;;;;;;;19.85;8.00;;;;;;;;;;5066608;28;20360;-77
2021/12/26 21:28:09;;;;;;;16.42;7.68;;;;;;;;;;5070258;28;20036;-77
2021/12/26 21:30:35;;;;;;;19.67;7.45;;;;;;;;;;5068941;28;20025;-76
2021/12/26 21:33:01;;;;;;;17.38;7.78;;;;;;;;;;5065051;28;20532;-77
2021/12/26 21:35:27;;;;;;;18.98;8.40;;;;;;;;;;5052780;28;20053;-77
2021/12/26 21:37:53;;;;;;;24.15;8.60;;;;;;;;;;5053373;28;20032;-77
2021/12/26 21:40:19;;;;;;;20.48;7.93;;;;;;;;;;5075117;28;20488;-74
2021/12/26 21:42:46;;;;;;;18.77;7.90;;;;;;;;;;5089790;28;20519;-72
2021/12/26 21:45:14;;;;;;;16.92;7.88;;;;;;;;;;5088348;28;20019;-74
2021/12/26 21:47:41;;;;;;;18.33;8.52;;;;;;;;;;5071933;28;20121;-73
2021/12/26 21:50:12;;;;;;;18.45;9.23;;;;;;;;;;5071316;28;20055;-77
2021/12/26 21:52:41;;;;;;;24.95;9.45;;;;;;;;;;5069263;28;20047;-78
2021/12/26 21:55:09;;;;;;;19.20;8.95;;;;;;;;;;5039009;28;20025;-77
2021/12/26 21:57:36;;;;;;;21.35;8.18;;;;;;;;;;5053133;28;20052;-78
2021/12/26 22:00:02;;;;;;;16.73;8.02;;;;;;;;;;5053753;28;20035;-74
2021/12/26 22:02:28;;;;;;;17.42;7.43;;;;;;;;;;5059368;28;20016;-73
2021/12/26 22:04:54;;;;;;;21.63;7.93;;;;;;;;;;5058424;28;20029;-74
2021/12/26 22:07:20;;;;;;;16.85;7.82;;;;;;;;;;5056446;28;20032;-73
2021/12/26 22:09:46;;;;;;;18.92;7.65;;;;;;;;;;5065314;28;20035;-73
2021/12/26 22:12:13;;;;;;;13.68;7.47;;;;;;;;;;5054238;28;20021;-74
2021/12/26 22:14:39;;;;;;;17.75;8.40;;;;;;;;;;5051889;28;20028;-74
2021/12/26 22:17:05;;;;;;;15.65;9.32;;;;;;;;;;5058444;28;20028;-74
2021/12/26 22:19:31;;;;;;;21.13;11.77;;;;;;;;;;5058376;28;20028;-77
2021/12/26 22:21:58;;;;;;;28.15;11.30;;;;;;;;;;5054689;28;20085;-78
2021/12/26 22:24:24;;;;;;;19.35;11.20;;;;;;;;;;5066673;28;20028;-77
2021/12/26 22:26:50;;;;;;;21.33;9.77;;;;;;;;;;5068385;28;20129;-77
2021/12/26 22:29:16;;;;;;;20.77;8.73;;;;;;;;;;5056057;28;20037;-79
2021/12/26 22:31:42;;;;;;;21.58;8.80;;;;;;;;;;5084790;28;20492;-73
2021/12/26 22:34:08;;;;;;;17.75;8.77;;;;;;;;;;5058007;28;20392;-78
2021/12/26 22:36:34;;;;;;;16.10;7.65;;;;;;;;;;5054772;28;20045;-77
2021/12/26 22:39:00;;;;;;;18.08;7.75;;;;;;;;;;5054530;28;20037;-72
2021/12/26 22:41:27;;;;;;;18.35;7.85;;;;;;;;;;5053080;28;20020;-73
2021/12/26 22:43:53;;;;;;;25.73;8.20;;;;;;;;;;5056310;28;20373;-73
2021/12/26 22:46:19;;;;;;;17.88;7.30;;;;;;;;;;5055200;28;20108;-72
2021/12/26 22:48:45;;;;;;;18.02;7.40;;;;;;;;;;5061352;28;20484;-78
2021/12/26 22:51:11;;;;;;;15.75;8.38;;;;;;;;;;5055945;28;20039;-78
2021/12/26 22:53:37;;;;;;;26.27;10.63;;;;;;;;;;5052662;28;20028;-78
2021/12/26 22:56:04;;;;;;;48.30;11.93;;;;;;;;;;5055254;28;20029;-78
2021/12/26 22:58:30;;;;;;;145.13;15.90;;;;;;;;;;5062035;28;20051;-79
2021/12/26 23:00:57;;;;;;;153.93;16.38;;;;;;;;;;5056653;28;20021;-79
2021/12/26 23:03:27;;;;;;;154.00;14.77;;;;;;;;;;5063124;28;20499;-79
2021/12/26 23:05:54;;;;;;;130.25;12.93;;;;;;;;;;5051849;28;20025;-78
2021/12/26 23:08:20;;;;;;;69.68;10.32;;;;;;;;;;5052436;28;20052;-78
2021/12/26 23:10:46;;;;;;;56.60;8.95;;;;;;;;;;5060153;28;20484;-78
2021/12/26 23:13:12;;;;;;;45.45;8.05;;;;;;;;;;5062691;28;20040;-77
2021/12/26 23:15:39;;;;;;;62.15;9.10;;;;;;;;;;5063499;28;20029;-77
2021/12/26 23:18:07;;;;;;;35.17;6.82;;;;;;;;;;5061167;28;20024;-74
2021/12/26 23:20:33;;;;;;;28.35;8.00;;;;;;;;;;5062844;28;20028;-73
2021/12/26 23:22:59;;;;;;;49.92;7.97;;;;;;;;;;5073656;28;20036;-77
2021/12/26 23:25:25;;;;;;;51.47;7.40;;;;;;;;;;5068363;28;20085;-77
2021/12/26 23:27:53;;;;;;;45.88;8.77;;;;;;;;;;5054387;28;20059;-74
2021/12/26 23:30:19;;;;;;;42.13;7.97;;;;;;;;;;5064276;28;20113;-74
2021/12/26 23:32:45;;;;;;;30.80;7.50;;;;;;;;;;5074488;28;20036;-77
2021/12/26 23:35:11;;;;;;;43.75;8.73;;;;;;;;;;5091359;28;20043;-78
2021/12/26 23:37:37;;;;;;;32.85;8.93;;;;;;;;;;5092994;28;20031;-77
2021/12/26 23:40:04;;;;;;;47.72;8.57;;;;;;;;;;5082933;28;20048;-77
2021/12/26 23:42:33;;;;;;;37.85;8.98;;;;;;;;;;5053555;28;20017;-79
2021/12/26 23:45:02;;;;;;;25.42;8.35;;;;;;;;;;5059543;28;20036;-78
2021/12/26 23:47:28;;;;;;;38.28;8.65;;;;;;;;;;5052512;28;20143;-79
2021/12/26 23:49:54;;;;;;;23.63;8.02;;;;;;;;;;5052633;28;20020;-79
2021/12/26 23:52:20;;;;;;;36.45;8.35;;;;;;;;;;5051794;28;20506;-78
2021/12/26 23:54:47;;;;;;;31.13;8.38;;;;;;;;;;5052962;28;20025;-75
2021/12/26 23:57:13;;;;;;;38.15;8.60;;;;;;;;;;5053691;28;20025;-78
2021/12/26 23:59:39;;;;;;;23.92;7.47;;;;;;;;;;5035431;28;20021;-79
